Time;durP1;ratioP1;P1;durP2;ratioP2;P2;SDS_P1;SDS_P2;PMS_P1;PMS_P2;Temp;Humidity;BMP_temperature;BMP_pressure;BME280_temperature;BME280_humidity;BME280_pressure;Samples;Min_cycle;Max_cycle;Signal;HPM_P1;HPM_P2
2020/12/25 00:00:39;;;;;;;13.30;10.00;;;4.40;99.90;;;;;;5051479;28;20203;-65
2020/12/25 00:03:05;;;;;;;15.20;9.37;;;4.50;99.90;;;;;;5052136;28;20641;-66
2020/12/25 00:05:30;;;;;;;11.83;8.70;;;4.50;99.90;;;;;;5050442;28;20202;-66
2020/12/25 00:07:56;;;;;;;11.77;8.87;;;4.50;99.90;;;;;;5052000;28;20513;-66
2020/12/25 00:10:22;;;;;;;11.33;7.87;;;4.50;99.90;;;;;;5049745;28;20329;-65
2020/12/25 00:12:47;;;;;;;15.43;7.37;;;4.50;99.90;;;;;;5051134;28;20167;-65
2020/12/25 00:15:13;;;;;;;12.23;7.43;;;4.50;99.90;;;;;;5051315;28;20605;-66
2020/12/25 00:17:39;;;;;;;12.50;7.57;;;4.50;99.90;;;;;;5050354;28;20274;-66
2020/12/25 00:20:05;;;;;;;16.20;6.90;;;4.60;99.90;;;;;;5051529;28;20170;-66
2020/12/25 00:22:30;;;;;;;15.57;6.67;;;4.60;99.90;;;;;;5051261;28;20595;-66
2020/12/25 00:24:56;;;;;;;14.10;6.93;;;4.70;99.90;;;;;;5051751;28;20281;-65
2020/12/25 00:27:21;;;;;;;14.23;6.40;;;4.70;99.90;;;;;;5050038;28;20174;-66
2020/12/25 00:29:47;;;;;;;15.07;8.40;;;4.70;99.90;;;;;;5051713;28;20205;-66
2020/12/25 00:32:13;;;;;;;15.67;8.37;;;4.70;99.90;;;;;;5051154;28;20636;-66
2020/12/25 00:34:38;;;;;;;12.77;8.17;;;4.70;99.90;;;;;;5051235;28;20610;-65
2020/12/25 00:37:04;;;;;;;17.83;9.03;;;4.70;99.90;;;;;;5051537;28;20249;-66
2020/12/25 00:39:29;;;;;;;14.73;7.93;;;4.70;99.90;;;;;;5050935;28;20178;-66
2020/12/25 00:41:55;;;;;;;10.77;7.87;;;4.70;99.90;;;;;;5051245;28;20598;-66
2020/12/25 00:44:20;;;;;;;15.50;8.50;;;4.80;99.90;;;;;;5050881;28;20293;-66
2020/12/25 00:46:47;;;;;;;12.47;6.53;;;4.70;99.90;;;;;;5051264;28;20187;-65
2020/12/25 00:49:13;;;;;;;14.23;7.03;;;4.70;99.90;;;;;;5049950;28;20217;-65
2020/12/25 00:51:39;;;;;;;11.97;7.63;;;4.70;99.90;;;;;;5050910;28;20178;-66
2020/12/25 00:54:05;;;;;;;12.60;7.47;;;4.70;99.90;;;;;;5051424;28;20251;-65
2020/12/25 00:56:31;;;;;;;13.77;7.43;;;4.70;99.90;;;;;;5050995;28;20805;-66
2020/12/25 00:58:56;;;;;;;13.17;8.07;;;4.70;99.90;;;;;;5051449;28;20228;-66
2020/12/25 01:01:22;;;;;;;16.43;7.77;;;4.80;99.90;;;;;;5050973;28;20186;-66
2020/12/25 01:03:48;;;;;;;13.77;7.13;;;4.70;99.90;;;;;;5055335;28;20680;-66
2020/12/25 01:06:15;;;;;;;20.17;9.20;;;4.70;99.90;;;;;;5055119;28;20174;-67
2020/12/25 01:08:42;;;;;;;12.27;7.67;;;4.70;99.90;;;;;;5055190;28;20214;-65
2020/12/25 01:11:08;;;;;;;13.60;8.13;;;4.60;99.90;;;;;;5054749;28;20228;-65
2020/12/25 01:13:35;;;;;;;11.77;7.97;;;4.60;99.90;;;;;;5054702;28;20268;-65
2020/12/25 01:16:15;;;;;;;13.80;8.17;;;4.50;99.90;;;;;;5054285;28;20658;-65
2020/12/25 01:18:48;;;;;;;17.30;9.20;;;4.40;99.90;;;;;;5053628;28;20277;-66
2020/12/25 01:21:14;;;;;;;13.27;8.87;;;4.30;99.90;;;;;;5054818;28;20253;-66
2020/12/25 01:23:40;;;;;;;19.77;9.63;;;4.30;99.90;;;;;;5054909;28;20225;-65
2020/12/25 01:26:06;;;;;;;13.80;9.50;;;4.40;99.90;;;;;;5055178;28;20185;-66
2020/12/25 01:28:33;;;;;;;19.73;9.83;;;4.40;99.90;;;;;;5054081;28;20569;-66
2020/12/25 01:30:58;;;;;;;18.50;9.57;;;4.50;99.90;;;;;;5054777;28;20179;-66
2020/12/25 01:33:24;;;;;;;16.03;10.33;;;4.40;99.90;;;;;;5054495;28;20205;-66
2020/12/25 01:35:50;;;;;;;16.57;10.73;;;4.40;99.90;;;;;;5054843;28;20239;-66
2020/12/25 01:38:16;;;;;;;19.37;10.37;;;4.40;99.90;;;;;;5054336;28;20615;-66
2020/12/25 01:40:41;;;;;;;15.83;9.07;;;4.40;99.90;;;;;;5054500;28;20179;-66
2020/12/25 01:43:07;;;;;;;14.43;9.20;;;4.40;99.90;;;;;;5054482;28;20270;-64
2020/12/25 01:45:33;;;;;;;11.80;7.70;;;4.40;99.90;;;;;;5054586;28;20174;-66
2020/12/25 01:48:00;;;;;;;10.23;7.13;;;4.30;99.90;;;;;;5054451;28;20620;-66
2020/12/25 01:50:27;;;;;;;14.60;8.27;;;4.30;99.90;;;;;;5054088;28;20211;-65
2020/12/25 01:52:54;;;;;;;13.77;7.17;;;4.30;99.90;;;;;;5054271;28;20183;-65
2020/12/25 01:55:24;;;;;;;11.87;6.77;;;4.30;99.90;;;;;;5054427;28;20613;-65
2020/12/25 01:57:53;;;;;;;13.63;7.30;;;4.20;99.90;;;;;;5054370;28;20185;-66
2020/12/25 02:00:19;;;;;;;12.83;7.60;;;4.20;99.90;;;;;;5053947;28;20653;-66
2020/12/25 02:02:44;;;;;;;10.97;7.70;;;4.20;99.90;;;;;;5054226;28;20608;-66
2020/12/25 02:05:10;;;;;;;8.83;7.50;;;4.20;99.90;;;;;;5054397;28;20210;-66
2020/12/25 02:07:35;;;;;;;11.83;7.70;;;4.10;99.90;;;;;;5052620;28;20190;-65
2020/12/25 02:10:01;;;;;;;13.73;7.07;;;4.20;99.90;;;;;;5053715;28;20268;-66
2020/12/25 02:12:27;;;;;;;9.30;6.47;;;4.10;99.90;;;;;;5053539;28;20179;-65
2020/12/25 02:14:52;;;;;;;9.30;6.07;;;4.10;99.90;;;;;;5052891;28;20210;-66
2020/12/25 02:17:18;;;;;;;10.77;5.63;;;4.10;99.90;;;;;;5053896;28;20655;-65
2020/12/25 02:19:43;;;;;;;10.13;5.90;;;4.00;99.90;;;;;;5053814;28;20179;-66
2020/12/25 02:22:09;;;;;;;8.83;4.87;;;3.90;99.90;;;;;;5053722;28;20178;-65
2020/12/25 02:24:35;;;;;;;7.23;5.27;;;3.90;99.90;;;;;;5053657;28;20198;-65
2020/12/25 02:27:00;;;;;;;11.27;5.67;;;3.90;99.90;;;;;;5053643;28;20187;-64
2020/12/25 02:29:26;;;;;;;11.47;6.30;;;4.00;99.90;;;;;;5053565;28;20234;-66
2020/12/25 02:31:51;;;;;;;10.07;5.70;;;4.00;99.90;;;;;;5053251;28;20175;-65
2020/12/25 02:34:17;;;;;;;12.47;7.07;;;4.00;99.90;;;;;;5053537;28;20190;-64
2020/12/25 02:36:43;;;;;;;17.77;7.73;;;4.00;99.90;;;;;;5053446;28;20190;-65
2020/12/25 02:39:08;;;;;;;11.33;8.50;;;4.10;99.90;;;;;;5053668;28;20179;-65
2020/12/25 02:41:34;;;;;;;18.10;8.77;;;4.10;99.90;;;;;;5053241;28;20659;-66
2020/12/25 02:43:59;;;;;;;14.33;8.13;;;4.10;99.90;;;;;;5053601;28;20285;-66
2020/12/25 02:46:28;;;;;;;17.53;8.00;;;4.10;99.90;;;;;;5053088;28;20187;-65
2020/12/25 02:48:54;;;;;;;15.93;7.30;;;4.00;99.90;;;;;;5053471;28;20561;-65
2020/12/25 02:51:20;;;;;;;15.87;7.40;;;4.00;99.90;;;;;;5052535;28;20186;-66
2020/12/25 02:53:46;;;;;;;11.30;6.73;;;3.90;99.90;;;;;;5053350;28;20191;-65
2020/12/25 02:56:19;;;;;;;9.47;5.93;;;3.90;99.90;;;;;;5053078;28;20183;-65
2020/12/25 02:58:45;;;;;;;12.13;6.10;;;3.90;99.90;;;;;;5053053;28;20546;-64
2020/12/25 03:01:12;;;;;;;11.00;5.70;;;3.80;99.90;;;;;;5052786;28;20533;-65
2020/12/25 03:03:39;;;;;;;14.47;5.20;;;3.80;99.90;;;;;;5053162;28;20203;-65
2020/12/25 03:06:05;;;;;;;7.57;4.73;;;3.80;99.90;;;;;;5051713;28;20189;-66
2020/12/25 03:08:32;;;;;;;11.37;5.43;;;3.80;99.90;;;;;;5052829;28;20185;-66
2020/12/25 03:10:57;;;;;;;8.47;4.87;;;3.80;99.90;;;;;;5051350;28;20181;-65
2020/12/25 03:13:23;;;;;;;12.77;5.50;;;3.80;99.90;;;;;;5052747;28;20291;-65
2020/12/25 03:15:49;;;;;;;11.83;4.40;;;3.90;99.90;;;;;;5052844;28;20183;-66
2020/12/25 03:18:14;;;;;;;7.60;4.33;;;3.90;99.90;;;;;;5052825;28;20197;-65
2020/12/25 03:20:40;;;;;;;13.67;4.50;;;3.90;99.90;;;;;;5052442;28;20218;-65
2020/12/25 03:23:05;;;;;;;8.67;3.47;;;3.90;99.90;;;;;;5052650;28;20664;-65
2020/12/25 03:25:31;;;;;;;9.43;4.50;;;3.90;99.90;;;;;;5051902;28;20273;-66
2020/12/25 03:27:57;;;;;;;6.53;3.43;;;3.90;99.90;;;;;;5052891;28;20175;-64
2020/12/25 03:30:22;;;;;;;8.80;3.40;;;3.90;99.90;;;;;;5050601;28;20321;-66
2020/12/25 03:32:48;;;;;;;6.57;3.50;;;3.90;99.90;;;;;;5052625;28;20175;-65
2020/12/25 03:35:13;;;;;;;6.00;3.40;;;4.00;99.90;;;;;;5052107;28;20230;-66
2020/12/25 03:37:39;;;;;;;8.87;3.97;;;4.00;99.90;;;;;;5052777;28;20174;-65
2020/12/25 03:40:05;;;;;;;7.63;4.67;;;4.00;99.90;;;;;;5052084;28;20189;-65
2020/12/25 03:42:30;;;;;;;9.30;4.87;;;3.90;99.90;;;;;;5051000;28;20516;-65
2020/12/25 03:44:56;;;;;;;10.70;5.27;;;3.90;99.90;;;;;;5052070;28;20194;-65
2020/12/25 03:47:25;;;;;;;11.90;6.07;;;3.90;99.90;;;;;;5052229;28;20228;-66
2020/12/25 03:49:54;;;;;;;15.03;6.93;;;4.00;99.90;;;;;;5050836;28;20217;-66
2020/12/25 03:52:21;;;;;;;12.23;6.50;;;3.90;99.90;;;;;;5032204;28;20171;-66
2020/12/25 03:54:46;;;;;;;9.80;5.50;;;3.80;99.90;;;;;;5048721;28;20208;-66
2020/12/25 03:57:12;;;;;;;13.33;6.93;;;3.80;99.90;;;;;;5052114;28;20175;-65
2020/12/25 03:59:38;;;;;;;10.57;6.37;;;3.80;99.90;;;;;;5051864;28;20186;-65
2020/12/25 04:02:04;;;;;;;13.07;6.70;;;3.80;99.90;;;;;;5051956;28;20593;-65
2020/12/25 04:04:29;;;;;;;10.83;6.27;;;3.70;99.90;;;;;;5051680;28;20198;-65
2020/12/25 04:06:55;;;;;;;13.00;6.43;;;3.70;99.90;;;;;;5052022;28;20636;-65
2020/12/25 04:09:21;;;;;;;12.50;5.67;;;3.60;99.90;;;;;;5051458;28;20210;-66
2020/12/25 04:11:48;;;;;;;7.30;4.87;;;3.60;99.90;;;;;;5050864;28;20225;-66
2020/12/25 04:14:18;;;;;;;6.97;4.30;;;3.60;99.90;;;;;;5051314;28;20222;-66
2020/12/25 04:16:44;;;;;;;6.40;4.20;;;3.50;99.90;;;;;;5051747;28;20181;-65
2020/12/25 04:19:10;;;;;;;9.10;4.87;;;3.40;99.90;;;;;;5051560;28;20191;-65
2020/12/25 04:21:36;;;;;;;9.63;4.73;;;3.40;99.90;;;;;;5051314;28;20656;-66
2020/12/25 04:24:02;;;;;;;9.23;5.60;;;3.30;99.90;;;;;;5051733;28;20186;-66
2020/12/25 04:26:28;;;;;;;11.90;3.27;;;3.20;99.90;;;;;;5051266;28;20178;-64
2020/12/25 04:28:53;;;;;;;6.40;3.80;;;3.10;99.90;;;;;;5051771;28;20198;-65
2020/12/25 04:31:19;;;;;;;7.97;3.83;;;3.10;99.90;;;;;;5051160;28;20262;-65
2020/12/25 04:33:45;;;;;;;10.73;3.63;;;3.10;99.90;;;;;;5051630;28;20281;-65
2020/12/25 04:36:10;;;;;;;8.60;3.90;;;3.00;99.90;;;;;;5049307;28;20239;-65
2020/12/25 04:38:36;;;;;;;9.00;3.63;;;3.10;99.90;;;;;;5051365;28;20171;-65
2020/12/25 04:41:05;;;;;;;9.30;3.63;;;3.10;99.90;;;;;;5051255;28;20171;-65
2020/12/25 04:43:32;;;;;;;11.40;3.53;;;3.00;99.90;;;;;;5051623;28;20598;-66
2020/12/25 04:45:58;;;;;;;11.87;3.83;;;3.00;99.90;;;;;;5051396;28;20207;-65
2020/12/25 04:48:23;;;;;;;10.90;3.13;;;2.90;99.90;;;;;;5049935;28;20179;-65
2020/12/25 04:50:49;;;;;;;7.87;3.30;;;2.90;99.90;;;;;;5050883;28;20179;-65
2020/12/25 04:53:15;;;;;;;10.23;3.53;;;2.80;99.90;;;;;;5049882;28;20320;-65
2020/12/25 04:55:41;;;;;;;9.40;2.73;;;2.70;99.90;;;;;;5051241;28;20232;-65
2020/12/25 04:58:06;;;;;;;6.73;2.70;;;2.70;99.90;;;;;;5051404;28;20178;-66
2020/12/25 05:00:32;;;;;;;8.33;3.23;;;2.50;99.90;;;;;;5050836;28;20183;-65
2020/12/25 05:02:57;;;;;;;6.20;3.30;;;2.40;99.90;;;;;;5051270;28;20254;-67
2020/12/25 05:05:29;;;;;;;7.20;2.90;;;2.40;99.90;;;;;;5049618;28;20229;-65
2020/12/25 05:07:58;;;;;;;6.63;2.83;;;2.30;99.90;;;;;;5050243;28;20174;-65
2020/12/25 05:10:25;;;;;;;6.70;2.77;;;2.20;99.90;;;;;;5050432;28;20664;-66
2020/12/25 05:12:50;;;;;;;11.90;3.20;;;2.20;99.90;;;;;;5050309;28;20289;-66
2020/12/25 05:15:16;;;;;;;12.53;3.40;;;2.20;99.90;;;;;;5124567;22;20236;-64
2020/12/25 05:17:42;;;;;;;4.57;2.63;;;2.20;99.90;;;;;;5065140;28;20171;-65
2020/12/25 05:20:09;;;;;;;12.03;3.40;;;2.20;99.90;;;;;;5050957;28;20269;-65
2020/12/25 05:22:35;;;;;;;8.90;3.33;;;2.20;99.90;;;;;;5054935;28;20181;-65
2020/12/25 05:25:03;;;;;;;10.37;4.00;;;2.20;99.90;;;;;;5069086;28;20201;-65
2020/12/25 05:27:29;;;;;;;6.20;3.13;;;2.20;99.90;;;;;;5051237;28;20244;-65
2020/12/25 05:30:00;;;;;;;10.27;3.60;;;2.10;99.90;;;;;;5051074;28;20213;-65
2020/12/25 05:32:28;;;;;;;3.47;2.77;;;2.10;99.90;;;;;;5071101;28;20284;-65
2020/12/25 05:34:56;;;;;;;9.63;2.80;;;2.00;99.90;;;;;;5070882;28;20179;-65
2020/12/25 05:37:32;;;;;;;10.33;3.30;;;2.00;99.90;;;;;;5051044;28;20537;-65
2020/12/25 05:40:00;;;;;;;8.60;3.47;;;1.90;99.90;;;;;;5051015;28;20519;-65
2020/12/25 05:42:25;;;;;;;5.17;2.70;;;1.90;99.90;;;;;;5070456;28;20178;-65
2020/12/25 05:44:51;;;;;;;13.27;4.47;;;1.80;99.90;;;;;;5070757;28;20709;-65
2020/12/25 05:47:17;;;;;;;9.63;3.57;;;1.80;99.90;;;;;;5052438;28;20220;-65
2020/12/25 05:49:44;;;;;;;8.40;3.40;;;1.80;99.90;;;;;;5054755;28;20206;-64
2020/12/25 05:52:12;;;;;;;8.23;3.63;;;1.70;99.90;;;;;;5070685;28;20174;-65
2020/12/25 05:54:41;;;;;;;5.23;3.00;;;1.70;99.90;;;;;;5074265;28;20201;-65
2020/12/25 05:57:08;;;;;;;10.73;3.77;;;1.70;99.90;;;;;;5058663;28;20183;-65
2020/12/25 05:59:34;;;;;;;8.73;3.47;;;1.60;99.90;;;;;;5054260;28;20174;-65
2020/12/25 06:02:04;;;;;;;9.47;3.13;;;1.60;99.90;;;;;;5064324;28;20247;-64
2020/12/25 06:04:32;;;;;;;14.03;4.10;;;1.60;99.90;;;;;;5074132;28;20228;-65
2020/12/25 06:06:59;;;;;;;7.63;3.17;;;1.60;99.90;;;;;;5060717;28;20186;-65
2020/12/25 06:09:33;;;;;;;7.13;3.20;;;1.50;99.90;;;;;;5054134;28;20208;-65
2020/12/25 06:12:00;;;;;;;7.60;3.03;;;1.50;99.90;;;;;;5065588;28;20227;-65
2020/12/25 06:14:26;;;;;;;9.03;3.90;;;1.50;99.90;;;;;;5063074;28;20615;-64
2020/12/25 06:17:01;;;;;;;9.80;3.40;;;1.50;99.90;;;;;;5054913;28;20214;-64
2020/12/25 06:19:50;;;;;;;9.30;3.93;;;1.50;99.90;;;;;;5063777;28;20221;-65
2020/12/25 06:22:22;;;;;;;10.13;3.70;;;1.50;99.90;;;;;;5073643;28;20715;-65
2020/12/25 06:24:50;;;;;;;7.00;3.07;;;1.50;99.90;;;;;;5061474;28;20198;-64
2020/12/25 06:27:16;;;;;;;8.13;4.20;;;1.50;99.90;;;;;;5054015;28;20174;-65
2020/12/25 06:29:43;;;;;;;13.40;3.50;;;1.60;99.90;;;;;;5064359;28;20259;-65
2020/12/25 06:32:10;;;;;;;8.37;3.63;;;1.60;99.90;;;;;;5065885;28;20175;-64
2020/12/25 06:34:47;;;;;;;9.87;3.63;;;1.60;99.90;;;;;;5053636;28;20199;-65
2020/12/25 06:37:14;;;;;;;9.17;3.10;;;1.70;99.90;;;;;;5060628;28;20231;-64
2020/12/25 06:39:53;;;;;;;7.17;2.77;;;1.70;99.90;;;;;;5073815;28;20197;-65
2020/12/25 06:42:35;;;;;;;10.57;3.60;;;1.70;99.90;;;;;;5064405;28;20584;-64
2020/12/25 06:45:06;;;;;;;8.73;3.33;;;1.70;99.90;;;;;;5053616;28;20567;-64
2020/12/25 06:47:39;;;;;;;4.87;3.40;;;1.70;99.90;;;;;;5063068;28;20178;-65
2020/12/25 06:50:13;;;;;;;11.80;4.00;;;1.70;99.90;;;;;;5073091;28;20193;-65
2020/12/25 06:52:53;;;;;;;8.00;3.50;;;1.70;99.90;;;;;;5062711;28;20652;-64
2020/12/25 06:55:21;;;;;;;7.30;4.27;;;1.60;99.90;;;;;;5053189;28;20191;-65
2020/12/25 06:57:49;;;;;;;15.70;4.37;;;1.60;99.90;;;;;;5063673;28;20182;-64
2020/12/25 07:00:19;;;;;;;14.57;3.90;;;1.70;99.90;;;;;;5072195;28;20170;-64
2020/12/25 07:02:44;;;;;;;12.37;3.80;;;1.60;99.90;;;;;;5063245;28;20183;-65
2020/12/25 07:05:10;;;;;;;16.10;4.20;;;1.60;99.90;;;;;;5053139;28;20202;-65
2020/12/25 07:07:36;;;;;;;11.10;4.57;;;1.70;99.90;;;;;;5054375;28;20640;-65
2020/12/25 07:10:10;;;;;;;11.47;4.17;;;1.70;99.90;;;;;;5052753;28;20250;-65
2020/12/25 07:12:36;;;;;;;13.80;4.20;;;1.80;99.90;;;;;;5058762;28;20235;-65
2020/12/25 07:15:03;;;;;;;11.27;3.60;;;1.80;99.90;;;;;;5073033;28;20194;-64
2020/12/25 07:17:29;;;;;;;6.67;3.87;;;1.80;99.90;;;;;;5067048;28;20261;-65
2020/12/25 07:19:55;;;;;;;15.07;5.37;;;1.90;99.90;;;;;;5053655;28;20276;-65
2020/12/25 07:22:21;;;;;;;8.97;3.90;;;2.00;99.90;;;;;;5055850;28;20177;-65
2020/12/25 07:24:47;;;;;;;10.37;4.27;;;2.00;99.90;;;;;;5072334;28;20264;-64
2020/12/25 07:27:14;;;;;;;20.30;5.50;;;2.00;99.90;;;;;;5072178;28;20239;-65
2020/12/25 07:29:40;;;;;;;13.43;4.87;;;2.10;99.90;;;;;;5056101;28;20595;-64
2020/12/25 07:32:08;;;;;;;11.60;5.37;;;2.10;99.90;;;;;;5052500;28;20175;-65
2020/12/25 07:34:34;;;;;;;11.57;4.20;;;2.20;99.90;;;;;;5066912;28;20239;-64
2020/12/25 07:36:59;;;;;;;10.40;4.00;;;2.30;99.90;;;;;;5072624;28;20265;-65
2020/12/25 07:39:26;;;;;;;12.93;4.53;;;2.30;99.90;;;;;;5057612;28;20183;-65
2020/12/25 07:41:52;;;;;;;8.63;3.67;;;2.30;99.90;;;;;;5052001;28;20175;-64
2020/12/25 07:44:18;;;;;;;15.37;4.10;;;2.30;99.90;;;;;;5062976;28;20208;-64
2020/12/25 07:46:44;;;;;;;19.00;4.07;;;2.40;99.90;;;;;;5070844;28;20269;-64
2020/12/25 07:49:10;;;;;;;16.10;4.20;;;2.40;99.90;;;;;;5051896;28;20575;-64
2020/12/25 07:51:36;;;;;;;11.57;4.07;;;2.50;99.90;;;;;;5051602;28;20281;-64
2020/12/25 07:54:03;;;;;;;12.63;3.57;;;2.50;99.90;;;;;;5070956;28;20281;-63
2020/12/25 07:56:33;;;;;;;12.60;4.40;;;2.60;99.90;;;;;;5071870;28;20200;-64
2020/12/25 07:58:59;;;;;;;9.93;3.30;;;2.60;99.90;;;;;;5053239;28;20241;-64
2020/12/25 08:01:26;;;;;;;10.93;3.50;;;2.70;99.90;;;;;;5051678;28;20183;-64
2020/12/25 08:03:53;;;;;;;14.37;3.43;;;2.70;99.90;;;;;;5068361;28;20202;-64
2020/12/25 08:06:21;;;;;;;7.37;3.70;;;2.70;99.90;;;;;;5072958;28;20181;-63
2020/12/25 08:09:10;;;;;;;6.80;3.73;;;2.70;99.90;;;;;;5057383;28;20283;-64
2020/12/25 08:11:40;;;;;;;8.80;3.37;;;2.80;99.90;;;;;;5051329;28;20254;-64
2020/12/25 08:14:11;;;;;;;10.00;3.13;;;2.80;99.90;;;;;;5052901;28;20638;-63
2020/12/25 08:16:42;;;;;;;5.67;3.17;;;2.80;99.90;;;;;;5051666;28;20181;-64
2020/12/25 08:19:07;;;;;;;9.80;3.43;;;2.80;99.90;;;;;;5068303;28;20185;-64
2020/12/25 08:21:36;;;;;;;4.57;2.83;;;2.80;99.90;;;;;;5052107;28;20236;-64
2020/12/25 08:24:02;;;;;;;6.97;2.90;;;2.80;99.90;;;;;;5051775;28;20232;-64
2020/12/25 08:26:35;;;;;;;4.77;3.27;;;2.70;99.90;;;;;;5051181;28;20549;-63
2020/12/25 08:29:00;;;;;;;8.37;3.40;;;2.70;99.90;;;;;;5051740;28;20672;-64
2020/12/25 08:31:34;;;;;;;11.40;3.20;;;2.70;99.90;;;;;;5050979;28;20171;-64
2020/12/25 08:34:00;;;;;;;8.83;3.80;;;2.60;99.90;;;;;;5051422;28;20183;-63
2020/12/25 08:36:26;;;;;;;10.77;4.43;;;2.60;99.90;;;;;;5051251;28;20167;-64
2020/12/25 08:38:51;;;;;;;9.33;3.53;;;2.50;99.90;;;;;;5052930;28;20214;-63
2020/12/25 08:41:17;;;;;;;9.10;3.70;;;2.50;99.90;;;;;;5050674;28;20186;-63
2020/12/25 08:43:43;;;;;;;14.23;3.63;;;2.50;99.90;;;;;;5051214;28;20328;-64
2020/12/25 08:46:09;;;;;;;9.03;3.70;;;2.40;99.90;;;;;;5052036;28;20175;-63
2020/12/25 08:48:48;;;;;;;8.40;3.83;;;2.40;99.90;;;;;;5050732;28;20175;-64
2020/12/25 08:51:15;;;;;;;10.80;2.93;;;2.40;99.90;;;;;;5059520;28;20170;-63
2020/12/25 08:53:51;;;;;;;10.67;3.37;;;2.40;99.90;;;;;;5065499;28;20195;-64
2020/12/25 08:56:19;;;;;;;7.43;3.27;;;2.50;99.90;;;;;;5056906;28;20176;-63
2020/12/25 08:59:01;;;;;;;5.07;3.20;;;2.60;99.90;;;;;;5055976;28;20190;-64
2020/12/25 09:01:28;;;;;;;7.40;3.43;;;2.70;99.90;;;;;;5067760;28;20176;-64
2020/12/25 09:03:56;;;;;;;8.27;4.40;;;2.80;99.90;;;;;;5070795;28;20588;-63
2020/12/25 09:06:22;;;;;;;7.40;3.63;;;3.00;99.90;;;;;;5055843;28;20175;-64
2020/12/25 09:08:48;;;;;;;9.37;3.93;;;3.30;99.90;;;;;;5049804;28;20396;-64
2020/12/25 09:11:16;;;;;;;4.27;3.00;;;3.40;99.90;;;;;;5066945;28;20185;-63
2020/12/25 09:13:43;;;;;;;6.83;3.47;;;3.50;99.90;;;;;;5071022;28;20287;-64
2020/12/25 09:16:09;;;;;;;4.17;3.20;;;3.60;99.90;;;;;;5056551;28;20262;-64
2020/12/25 09:18:36;;;;;;;10.53;3.97;;;3.60;99.90;;;;;;5067920;28;20257;-64
2020/12/25 09:21:03;;;;;;;4.73;2.80;;;3.60;99.90;;;;;;5063198;28;20198;-64
2020/12/25 09:23:30;;;;;;;6.87;3.13;;;3.60;99.90;;;;;;5053937;28;20217;-63
2020/12/25 09:25:56;;;;;;;5.93;3.40;;;3.80;99.90;;;;;;5056985;28;20580;-64
2020/12/25 09:28:25;;;;;;;7.13;2.80;;;4.10;99.90;;;;;;5056213;28;20217;-63
2020/12/25 09:30:56;;;;;;;7.60;2.90;;;4.30;99.90;;;;;;5067806;28;20198;-64
2020/12/25 09:33:23;;;;;;;6.33;2.63;;;4.40;99.90;;;;;;5057717;28;20167;-64
2020/12/25 09:35:49;;;;;;;8.20;3.77;;;4.40;99.90;;;;;;5065493;28;20170;-64
2020/12/25 09:38:15;;;;;;;8.03;2.73;;;4.40;99.90;;;;;;5074631;28;20219;-63
2020/12/25 09:40:41;;;;;;;5.10;2.20;;;4.60;99.90;;;;;;5066723;28;20171;-64
2020/12/25 09:43:06;;;;;;;6.00;2.67;;;4.80;99.90;;;;;;5058789;28;20209;-63
2020/12/25 09:45:32;;;;;;;5.37;2.63;;;5.20;99.90;;;;;;5067524;28;20202;-64
2020/12/25 09:47:58;;;;;;;5.57;3.20;;;5.60;99.90;;;;;;5057933;28;20183;-63
2020/12/25 09:50:24;;;;;;;6.77;2.90;;;5.60;99.90;;;;;;5064600;28;20351;-64
2020/12/25 09:52:49;;;;;;;7.27;3.10;;;5.50;99.90;;;;;;5055393;28;20186;-63
2020/12/25 09:55:15;;;;;;;5.03;2.80;;;5.40;99.90;;;;;;5054128;28;20198;-64
2020/12/25 09:57:41;;;;;;;6.53;2.50;;;5.60;99.90;;;;;;5055496;28;20293;-63
2020/12/25 10:00:08;;;;;;;3.30;2.10;;;5.90;99.90;;;;;;5074036;28;20201;-63
2020/12/25 10:02:34;;;;;;;4.10;2.13;;;6.20;99.90;;;;;;5054712;28;20525;-64
2020/12/25 10:05:00;;;;;;;6.03;2.20;;;6.60;99.90;;;;;;5068637;28;20203;-64
2020/12/25 10:07:26;;;;;;;3.83;2.50;;;7.00;99.90;;;;;;5054231;28;20171;-65
2020/12/25 10:09:52;;;;;;;2.57;1.83;;;7.30;99.90;;;;;;5064614;28;20194;-64
2020/12/25 10:12:18;;;;;;;4.23;1.80;;;7.50;99.90;;;;;;5057285;28;20228;-64
2020/12/25 10:14:43;;;;;;;7.17;2.03;;;7.50;99.90;;;;;;5053432;28;20661;-63
2020/12/25 10:17:09;;;;;;;6.63;2.10;;;7.00;99.90;;;;;;5055237;28;20181;-63
2020/12/25 10:19:35;;;;;;;5.67;2.40;;;6.70;99.90;;;;;;5054602;28;20186;-64
2020/12/25 10:22:01;;;;;;;5.13;2.27;;;6.40;99.90;;;;;;5073666;28;20261;-63
2020/12/25 10:24:26;;;;;;;6.77;2.27;;;6.10;99.90;;;;;;5071734;28;20766;-64
2020/12/25 10:26:52;;;;;;;4.33;2.23;;;5.90;99.90;;;;;;5073251;28;20182;-63
2020/12/25 10:29:18;;;;;;;4.50;2.30;;;5.80;99.90;;;;;;5067759;28;20687;-64
2020/12/25 10:31:50;;;;;;;11.43;3.00;;;5.90;99.90;;;;;;5053286;28;20209;-64
2020/12/25 10:34:16;;;;;;;5.30;2.77;;;5.80;99.90;;;;;;5055044;28;20194;-64
2020/12/25 10:36:43;;;;;;;4.20;2.10;;;5.80;99.90;;;;;;5070027;28;20174;-64
2020/12/25 10:39:12;;;;;;;5.50;2.83;;;5.80;99.90;;;;;;5053510;28;20538;-64
2020/12/25 10:41:38;;;;;;;5.83;2.40;;;5.80;99.90;;;;;;5055097;28;20225;-64
2020/12/25 10:44:05;;;;;;;9.50;2.60;;;5.90;99.90;;;;;;5073827;28;20265;-65
2020/12/25 10:46:31;;;;;;;3.00;2.30;;;5.90;99.90;;;;;;5072787;28;20174;-64
2020/12/25 10:48:57;;;;;;;6.10;2.47;;;5.90;99.90;;;;;;5053229;28;20206;-64
2020/12/25 10:51:22;;;;;;;5.97;2.70;;;5.90;99.90;;;;;;5052830;28;20170;-64
2020/12/25 10:53:48;;;;;;;8.50;2.83;;;5.70;99.90;;;;;;5071557;28;20201;-64
2020/12/25 10:56:24;;;;;;;3.23;1.90;;;5.70;99.90;;;;;;5073228;28;20180;-64
2020/12/25 10:58:50;;;;;;;4.07;2.20;;;5.80;99.90;;;;;;5071396;28;20181;-64
2020/12/25 11:01:23;;;;;;;3.87;2.17;;;5.80;99.90;;;;;;5072723;28;20162;-64
2020/12/25 11:03:49;;;;;;;8.07;2.43;;;5.80;99.90;;;;;;5055529;28;20198;-64
2020/12/25 11:06:15;;;;;;;7.00;2.50;;;5.90;99.90;;;;;;5052384;28;20170;-64
2020/12/25 11:08:41;;;;;;;7.17;2.13;;;5.90;99.90;;;;;;5067616;28;20170;-64
2020/12/25 11:11:06;;;;;;;4.47;2.10;;;6.10;99.90;;;;;;5072658;28;20315;-63
2020/12/25 11:15:59;;;;;;;2.73;2.00;;;6.20;99.90;;;;;;5075815;22;20230;-66
2020/12/25 11:18:25;;;;;;;6.23;2.57;;;6.20;99.90;;;;;;5054315;28;20179;-65
2020/12/25 11:20:50;;;;;;;4.20;1.83;;;6.60;99.90;;;;;;5053148;28;20233;-65
2020/12/25 11:23:16;;;;;;;4.17;1.67;;;7.00;99.90;;;;;;5054846;28;20188;-64
2020/12/25 11:25:42;;;;;;;3.67;2.10;;;7.40;99.90;;;;;;5053961;28;20194;-64
2020/12/25 11:28:08;;;;;;;6.47;2.10;;;7.60;99.90;;;;;;5053487;28;20178;-65
2020/12/25 11:30:33;;;;;;;3.97;1.97;;;7.60;99.90;;;;;;5052756;28;20573;-66
2020/12/25 11:32:59;;;;;;;10.20;2.10;;;7.50;99.90;;;;;;5053065;28;20210;-65
2020/12/25 11:35:24;;;;;;;6.50;2.30;;;7.30;99.90;;;;;;5053196;28;20203;-66
2020/12/25 11:37:50;;;;;;;7.37;1.87;;;7.10;99.90;;;;;;5052930;28;20210;-65
2020/12/25 11:40:15;;;;;;;5.43;2.13;;;6.90;99.90;;;;;;5052704;28;20187;-65
2020/12/25 11:42:41;;;;;;;6.43;2.07;;;6.70;99.90;;;;;;5053163;28;20250;-66
2020/12/25 11:45:06;;;;;;;13.30;2.40;;;6.60;99.90;;;;;;5051731;28;20297;-65
2020/12/25 11:47:32;;;;;;;7.93;2.27;;;6.60;99.90;;;;;;5052799;28;20193;-65
2020/12/25 11:49:58;;;;;;;6.70;2.40;;;6.70;99.90;;;;;;5053128;28;20206;-65
2020/12/25 11:52:24;;;;;;;5.57;2.13;;;6.70;99.90;;;;;;5053124;28;20171;-66
2020/12/25 11:54:50;;;;;;;7.57;2.20;;;6.70;99.90;;;;;;5052972;28;20276;-65
2020/12/25 11:57:15;;;;;;;13.70;2.73;;;6.60;99.90;;;;;;5052477;28;20182;-65
2020/12/25 11:59:41;;;;;;;3.47;2.10;;;6.60;99.90;;;;;;5052626;28;20656;-65
2020/12/25 12:02:07;;;;;;;5.07;2.63;;;6.60;99.90;;;;;;5052583;28;20698;-64
2020/12/25 12:04:32;;;;;;;6.30;2.60;;;6.60;99.90;;;;;;5052769;28;20695;-65
2020/12/25 12:06:58;;;;;;;7.47;2.53;;;6.60;99.90;;;;;;5052347;28;20182;-65
2020/12/25 12:09:24;;;;;;;7.70;2.30;;;6.50;99.90;;;;;;5052374;28;20206;-66
2020/12/25 12:11:50;;;;;;;4.07;1.87;;;6.40;99.90;;;;;;5052306;28;20270;-65
2020/12/25 12:14:15;;;;;;;4.13;2.03;;;6.40;99.90;;;;;;5052534;28;20203;-65
2020/12/25 12:16:41;;;;;;;6.67;2.50;;;6.40;99.90;;;;;;5052294;28;20253;-66
2020/12/25 12:19:06;;;;;;;5.40;2.50;;;6.40;99.90;;;;;;5052573;28;20254;-65
2020/12/25 12:21:32;;;;;;;4.40;2.03;;;6.40;99.90;;;;;;5051176;28;20183;-65
2020/12/25 12:23:57;;;;;;;5.53;2.00;;;6.40;99.90;;;;;;5051653;28;20210;-65
2020/12/25 12:26:23;;;;;;;4.23;2.27;;;6.40;99.90;;;;;;5051831;28;20719;-66
2020/12/25 12:28:49;;;;;;;5.73;2.60;;;6.40;99.90;;;;;;5052819;28;20206;-66
2020/12/25 12:31:14;;;;;;;5.93;2.13;;;6.30;99.90;;;;;;5051528;28;20174;-65
2020/12/25 12:33:40;;;;;;;6.93;2.47;;;6.30;99.90;;;;;;5052108;28;20247;-66
2020/12/25 12:36:10;;;;;;;4.43;2.30;;;6.20;99.90;;;;;;5051936;28;20189;-65
2020/12/25 12:38:35;;;;;;;5.50;2.07;;;6.20;99.90;;;;;;5051788;28;21134;-66
2020/12/25 12:41:01;;;;;;;5.40;2.43;;;6.20;99.90;;;;;;5051408;28;20229;-65
2020/12/25 12:43:26;;;;;;;4.97;2.37;;;6.20;99.90;;;;;;5051497;28;20194;-66
2020/12/25 12:45:52;;;;;;;3.93;2.00;;;6.10;99.90;;;;;;5051793;28;20257;-65
2020/12/25 12:48:18;;;;;;;5.33;1.93;;;6.20;99.90;;;;;;5051573;28;20182;-64
2020/12/25 12:50:43;;;;;;;5.37;2.20;;;6.20;99.90;;;;;;5051027;28;20214;-65
2020/12/25 12:53:09;;;;;;;4.60;2.60;;;6.20;99.90;;;;;;5051285;28;20171;-65